Aeroporto :
LOGIN :

Iscrizione | Disclaimer

   EN    FR    IT 

 










Sommario :    VFR   VFR Marginale   IFR   IFR Intensivo   IFR Molto Intensivo
Visibilità : 
Base nubi : 
>= 8 km
>= 3000ft
5 / 8 km
1000 / 3000 ft
1500m / 5 km
500 / 1000 ft
800 / 1500m
200 / 500 ft
< 800m
< 200 ft
Simboli :   Temporali  Nebbia  Neve Forte  Precipitazioni Forti  Vento > 20 kt
SIGMETs :   Varie  Temporali  Ghiacco  Turbolenza  Onda orograficha  Ceneri Vulcaniche






- Altitudine del aeroporto : 93 ft
- Codice IATA : HDF


EDAH - Heringsdorf

ULTIMO METAR :
  • 240820Z 14010KT CAVOK 07/M00 Q1008

METARs OBSOLETI :
  • 240750Z 14009KT CAVOK 07/01 Q1008
  • 240720Z 14009KT 9999 FEW016 07/00 Q1008
  • 240650Z 16010KT CAVOK 07/M00 Q1008
  • 240620Z AUTO 13011KT 9999 // OVC093/// 06/01 Q1008
  • 240550Z AUTO 14012KT 9999 // SCT046/// OVC093/// 06/M00 Q1008
  • 240520Z AUTO 13009KT 9999 // OVC047/// 06/01 Q1008
  • 240450Z AUTO 13011KT 9999 // BKN050/// OVC077/// 05/00 Q1009
  • 240420Z AUTO 13010KT 9999 // OVC050/// 06/01 Q1009
  • 240350Z AUTO 11008KT 9999 // OVC050/// 05/00 Q1009

TAF TAF EDAH
Valido dal 24 a 09 ore il 24 a 18 ore UTC


240800Z 2409/2418 13009KT 9999 SCT040
TEMPO 2410/2418 SHRA BKN030CB
PROB30
TEMPO 2411/2418 18015KT 4500 TSRA



MetMap, La meteo Aeronautica in un colpo d'occhio ! - Copyright ORBIFLY Dicembre 2007 - Disclaimer

ORBIFLY MET'MAP TEAM :

Programmazione e sviluppo : Alexandra Zaïnal
Concezione : Baudouin d'Aumeries
Supporto tecnico e logistico : Manuel Goepfert
Aiuto : Marc-Olivier Méhu
Aiuto per la traduzione : Arnaldo La Scala




FONTI E CREDITI :

   NOAA